Longmire, WA

12:12 AM PST on January 22, 2017 (GMT -0800)
Ashford | | Change Station

Elev 1935 ft 46.74 °N, 121.97 °W | Updated 7 seconds ago

Overcast
Overcast
32.9 °F
Feels Like 30 °F
N
3.2
Wind Variable Wind from ESE

Today
High -- | Low -- °F
--% Chance of Precip.
Yesterday
High -- | Low -- °F
Precip. -- in
Pressure 29.55 in
Visibility 0.8 miles
Clouds
Windchill 30 °F
Dew Point 33 °F
Humidity 99%
Rainfall 0.00 in
Snow Depth Not available.
7:41 AM 4:56 PM
Waning Crescent, 28% visible
SPECI KSMP 220741Z AUTO 05005KT 3/4SM BR VV002 M01/M02 A2955 RMK AO2 T10061017 $
Pressure 29.55 in
Visibility 0.8 miles
Clouds
Windchill 30 °F
Dew Point 33 °F
Humidity 99%
Rainfall 0.00 in
Snow Depth Not available.
7:41 AM 4:56 PM
Waning Crescent, 28% visible
SPECI KSMP 220741Z AUTO 05005KT 3/4SM BR VV002 M01/M02 A2955 RMK AO2 T10061017 $

Get Your Daily Forecast Email!

Thanks for signing up!

Be on the lookout for a verification email in your inbox.

You'll start receiving the daily forecast at 8 AM.

×

10-Day Weather Forecast

Almanac

Astronomy

Jan. 22, 2017 Rise Set
Actual Time
Civil Twilight
Nautical Twilight
Astronomical Twilight
Moon
Length of Visible Light
Length of Day
Tomorrow will be .
, % of the Moon is Illuminated

Today's Extremes

State Highs State Lows

Community

WunderPhotos

Upload Photos

1,962,540 photos uploaded!

WunderBlog® & News

Nearby

Air Quality

  Air Quality AQ Index Pollutant
Not available.

Snow Depth

Station Depth Elevation

Earthquake Activity

City Distance Mag. Time & Date
Minimum magnitude displayed is 2.5.

Coastal Water Temperatures

Place Temperature

Stations

Nearby Weather Stations

Station Location Temp. Windchill Dew Point Humidity Wind Precip. Elev Updated Type
                   

Watches & Warnings

There are currently no watches in effect.